Aviation Digital Data Service (ADDS)

Output produced by METARs form (0459 UTC 30 July 2014)
found at http://www.aviationweather.gov/adds/metars/
 
KDEC 292320Z 3000/3024 26003KT P6SM SKC 
     FM301400 28008KT P6SM SCT050